createdAt,value
2022-11-10T00:00:01.743Z,10.8
2022-11-10T00:01:06.959Z,10.8
2022-11-10T00:02:13.108Z,10.8
2022-11-10T00:03:19.320Z,10.7
2022-11-10T00:04:25.512Z,10.8
2022-11-10T00:05:31.713Z,10.8
2022-11-10T00:06:37.898Z,10.9
2022-11-10T00:07:44.103Z,10.9
2022-11-10T00:08:50.382Z,10.9
2022-11-10T00:09:56.505Z,11
2022-11-10T00:11:02.710Z,11
2022-11-10T00:12:08.911Z,11
2022-11-10T00:13:15.092Z,11
2022-11-10T00:14:21.293Z,11
2022-11-10T00:15:27.510Z,11.1
2022-11-10T00:16:33.704Z,11.1
2022-11-10T00:17:39.912Z,11.1
2022-11-10T00:18:46.114Z,11.1
2022-11-10T00:19:52.383Z,11
2022-11-10T00:20:58.525Z,11
2022-11-10T00:22:04.722Z,11
2022-11-10T00:23:10.920Z,10.9
2022-11-10T00:24:17.128Z,10.9
2022-11-10T00:25:23.330Z,10.9
2022-11-10T00:26:29.651Z,10.9
2022-11-10T00:27:35.834Z,10.9
2022-11-10T00:28:41.934Z,10.8
2022-11-10T00:29:48.145Z,10.9
2022-11-10T00:30:54.347Z,10.8
2022-11-10T00:32:00.617Z,10.8
2022-11-10T00:33:06.765Z,10.7
2022-11-10T00:34:13.014Z,10.7
2022-11-10T00:35:19.155Z,10.7
2022-11-10T00:36:25.373Z,10.7
2022-11-10T00:37:31.599Z,10.6
2022-11-10T00:38:37.767Z,10.6
2022-11-10T00:39:44.010Z,10.6
2022-11-10T00:40:50.204Z,10.6
2022-11-10T00:41:56.463Z,10.6
2022-11-10T00:43:01.777Z,10.5
2022-11-10T00:44:08.060Z,10.4
2022-11-10T00:45:14.111Z,10.4
2022-11-10T00:46:19.324Z,10.4
2022-11-10T00:47:25.559Z,10.4
2022-11-10T00:48:31.719Z,10.4
2022-11-10T00:49:37.955Z,10.4
2022-11-10T00:50:44.126Z,10.4
2022-11-10T00:51:50.429Z,10.4
2022-11-10T00:52:56.543Z,10.4
2022-11-10T00:54:02.789Z,10.3
2022-11-10T00:55:08.945Z,10.3
2022-11-10T00:56:15.147Z,10.3
2022-11-10T00:57:21.352Z,10.3
2022-11-10T00:58:26.568Z,10.3
2022-11-10T00:59:32.781Z,10.3
2022-11-10T01:00:39.110Z,10.3
2022-11-10T01:01:45.215Z,10.3
2022-11-10T01:02:51.389Z,10.3
2022-11-10T01:03:57.566Z,10.3
2022-11-10T01:05:03.785Z,10.3
2022-11-10T01:06:09.973Z,10.3
2022-11-10T01:07:16.228Z,10.2
2022-11-10T01:08:22.411Z,10.2
2022-11-10T01:09:28.573Z,10.2
2022-11-10T01:10:34.787Z,10.3
2022-11-10T01:11:40.995Z,10.2
2022-11-10T01:12:47.188Z,10.2
2022-11-10T01:13:53.395Z,10.2
2022-11-10T01:14:59.616Z,10.1
2022-11-10T01:16:05.858Z,10.1
2022-11-10T01:17:12.125Z,10.1
2022-11-10T01:18:18.241Z,10
2022-11-10T01:19:24.430Z,10
2022-11-10T01:20:30.707Z,10
2022-11-10T01:21:36.830Z,10
2022-11-10T01:22:43.024Z,10
2022-11-10T01:23:49.242Z,10
2022-11-10T01:24:55.440Z,10
2022-11-10T01:26:01.735Z,10
2022-11-10T01:27:07.001Z,10.1
2022-11-10T01:28:13.202Z,10
2022-11-10T01:29:19.406Z,10.1
2022-11-10T01:30:25.679Z,10.1
2022-11-10T01:31:31.822Z,10.1
2022-11-10T01:32:38.018Z,10.1
2022-11-10T01:33:52.389Z,10.1
2022-11-10T01:34:50.446Z,10.2
2022-11-10T01:35:56.646Z,10.3
2022-11-10T01:37:02.858Z,10.4
2022-11-10T01:38:09.058Z,10.4
2022-11-10T01:39:15.284Z,10.4
2022-11-10T01:40:21.475Z,10.4
2022-11-10T01:41:27.748Z,10.4
2022-11-10T01:42:33.944Z,10.4
2022-11-10T01:43:40.088Z,10.5
2022-11-10T01:44:46.293Z,10.5
2022-11-10T01:45:52.486Z,10.5
2022-11-10T01:46:58.685Z,10.4
2022-11-10T01:48:05.019Z,10.4
2022-11-10T01:49:11.095Z,10.4
2022-11-10T01:50:17.392Z,10.4
2022-11-10T01:51:23.498Z,10.4
2022-11-10T01:52:29.712Z,10.4
2022-11-10T01:53:35.939Z,10.3
2022-11-10T01:54:42.299Z,10.3
2022-11-10T01:55:47.560Z,10.3
2022-11-10T01:56:52.893Z,10.2
2022-11-10T01:57:58.234Z,10.2
2022-11-10T01:59:03.578Z,10.2
2022-11-10T02:00:08.902Z,10.2
2022-11-10T02:01:14.222Z,10.3
2022-11-10T02:02:19.503Z,10.3
2022-11-10T02:03:25.693Z,10.3
2022-11-10T02:04:31.995Z,10.3
2022-11-10T02:05:38.155Z,10.3
2022-11-10T02:06:44.317Z,10.4
2022-11-10T02:07:50.527Z,10.4
2022-11-10T02:08:56.726Z,10.4
2022-11-10T02:10:03.005Z,10.4
2022-11-10T02:11:09.135Z,10.5
2022-11-10T02:12:15.329Z,10.5
2022-11-10T02:13:21.541Z,10.5
2022-11-10T02:14:27.798Z,10.5
2022-11-10T02:15:33.979Z,10.5
2022-11-10T02:16:40.124Z,10.5
2022-11-10T02:17:46.337Z,10.5
2022-11-10T02:18:52.548Z,10.6
2022-11-10T02:19:58.758Z,10.6
2022-11-10T02:21:04.966Z,10.6
2022-11-10T02:22:11.175Z,10.6
2022-11-10T02:23:17.361Z,10.6
2022-11-10T02:24:23.571Z,10.6
2022-11-10T02:25:29.744Z,10.5
2022-11-10T02:26:35.963Z,10.4
2022-11-10T02:27:42.168Z,10.4
2022-11-10T02:28:48.366Z,10.3
2022-11-10T02:29:54.656Z,10.3
2022-11-10T02:30:59.929Z,10.3
2022-11-10T02:32:06.219Z,10.3
2022-11-10T03:19:35.351Z,10.1
2022-11-10T03:20:40.697Z,10.1
2022-11-10T03:21:46.895Z,10
2022-11-10T03:22:53.085Z,10
2022-11-10T03:23:59.296Z,10
2022-11-10T03:25:05.606Z,9.9
2022-11-10T03:26:11.712Z,10
2022-11-10T03:27:17.911Z,9.9
2022-11-10T03:28:24.160Z,9.9
2022-11-10T03:29:30.317Z,9.9
2022-11-10T03:30:36.538Z,9.9
2022-11-10T03:31:42.802Z,10
2022-11-10T03:32:48.953Z,10
2022-11-10T03:33:55.175Z,10
2022-11-10T03:35:01.385Z,10
2022-11-10T03:36:07.583Z,10.1
2022-11-10T03:37:13.805Z,10.1
2022-11-10T03:38:20.007Z,10.1
2022-11-10T03:39:26.212Z,10.1
2022-11-10T03:40:32.411Z,10.1
2022-11-10T03:41:38.615Z,10
2022-11-10T03:42:44.819Z,10
2022-11-10T03:43:51.019Z,9.9
2022-11-10T03:44:57.238Z,9.9
2022-11-10T03:46:03.521Z,9.9
2022-11-10T03:47:09.656Z,9.9
2022-11-10T03:48:15.927Z,9.9
2022-11-10T03:49:21.284Z,9.9
2022-11-10T03:50:26.609Z,9.8
2022-11-10T03:51:31.891Z,9.7
2022-11-10T03:52:38.097Z,9.7
2022-11-10T03:53:44.299Z,9.5
2022-11-10T03:54:50.508Z,9.5
2022-11-10T03:55:56.722Z,9.5
2022-11-10T03:57:02.935Z,9.4
2022-11-10T03:58:09.143Z,9.3
2022-11-10T03:59:15.352Z,9.3
2022-11-10T04:00:21.550Z,9.3
2022-11-10T04:01:27.745Z,9.2
2022-11-10T04:02:34.031Z,9.2
2022-11-10T04:03:40.236Z,9.2
2022-11-10T04:04:46.386Z,9.2
2022-11-10T04:05:52.612Z,9.1
2022-11-10T04:06:58.820Z,9.1
2022-11-10T04:08:05.019Z,9.1
2022-11-10T04:09:11.255Z,9
2022-11-10T04:10:17.450Z,9
2022-11-10T04:11:23.665Z,8.9
2022-11-10T04:12:29.886Z,8.9
2022-11-10T04:13:36.094Z,8.7
2022-11-10T04:14:42.300Z,8.6
2022-11-10T04:15:48.535Z,8.5
2022-11-10T04:16:54.763Z,8.4
2022-11-10T04:18:00.948Z,8.3
2022-11-10T04:19:07.237Z,8.2
2022-11-10T04:20:12.516Z,8.1
2022-11-10T04:21:18.736Z,8.1
2022-11-10T04:22:24.962Z,8.1
2022-11-10T04:23:31.177Z,8.1
2022-11-10T04:24:37.401Z,8.1
2022-11-10T04:25:43.603Z,8.1
2022-11-10T04:26:49.827Z,7.9
2022-11-10T04:27:56.055Z,7.9
2022-11-10T04:29:02.268Z,8
2022-11-10T04:30:08.516Z,8
2022-11-10T04:31:14.750Z,7.9
2022-11-10T04:32:20.980Z,7.8
2022-11-10T04:33:27.172Z,7.8
2022-11-10T04:34:33.439Z,7.9
2022-11-10T04:35:39.610Z,7.8
2022-11-10T04:36:45.867Z,7.8
2022-11-10T04:37:52.093Z,7.7
2022-11-10T04:38:58.319Z,7.7
2022-11-10T04:40:04.523Z,7.6
2022-11-10T04:41:10.748Z,7.6
2022-11-10T04:42:16.983Z,7.5
2022-11-10T04:43:23.221Z,7.4
2022-11-10T04:44:29.441Z,7.3
2022-11-10T04:45:35.703Z,7.3
2022-11-10T04:46:41.894Z,7.2
2022-11-10T04:47:48.203Z,7.2
2022-11-10T04:48:54.514Z,7
2022-11-10T04:50:00.888Z,7
2022-11-10T04:51:07.135Z,7
2022-11-10T04:52:12.436Z,6.9
2022-11-10T04:53:18.775Z,6.8
2022-11-10T04:54:24.939Z,6.8
2022-11-10T04:55:31.128Z,6.8
2022-11-10T04:56:37.406Z,6.7
2022-11-10T04:57:43.591Z,6.6
2022-11-10T04:58:49.862Z,6.6
2022-11-10T04:59:56.086Z,6.5
2022-11-10T05:01:02.317Z,6.5
2022-11-10T05:02:08.582Z,6.6
2022-11-10T05:03:14.788Z,6.5
2022-11-10T05:04:21.034Z,6.6
2022-11-10T05:05:27.324Z,6.6
2022-11-10T05:06:33.489Z,6.6
2022-11-10T05:07:39.752Z,6.7
2022-11-10T05:08:45.991Z,6.8
2022-11-10T05:09:52.224Z,6.9
2022-11-10T05:10:58.461Z,6.9
2022-11-10T05:12:04.727Z,6.9
2022-11-10T05:13:10.938Z,6.9
2022-11-10T05:14:17.172Z,6.9
2022-11-10T05:15:23.415Z,7
2022-11-10T05:16:29.655Z,7
2022-11-10T05:17:35.902Z,7.1
2022-11-10T05:18:42.131Z,7.2
2022-11-10T05:19:48.461Z,7.3
2022-11-10T05:20:54.781Z,7.4
2022-11-10T05:22:01.089Z,7.5
2022-11-10T05:23:07.404Z,7.6
2022-11-10T05:24:13.792Z,7.7
2022-11-10T05:25:20.051Z,7.8
2022-11-10T05:26:26.374Z,8
2022-11-10T05:27:32.690Z,8.1
2022-11-10T05:28:39.014Z,8.2
2022-11-10T05:29:45.308Z,8.4
2022-11-10T05:30:51.639Z,8.5
2022-11-10T05:31:57.963Z,8.5
2022-11-10T05:33:04.262Z,8.5
2022-11-10T05:34:10.835Z,8.6
2022-11-10T05:35:16.160Z,8.6
2022-11-10T05:36:22.521Z,8.6
2022-11-10T05:37:28.793Z,8.6
2022-11-10T05:38:35.137Z,8.6
2022-11-10T05:39:41.410Z,8.6
2022-11-10T05:40:46.705Z,8.6
2022-11-10T05:41:52.940Z,8.5
2022-11-10T05:42:59.173Z,8.5
2022-11-10T05:44:05.419Z,8.5
2022-11-10T05:45:11.660Z,8.4
2022-11-10T05:46:17.858Z,8.4
2022-11-10T05:47:24.195Z,8.4
2022-11-10T05:48:30.321Z,8.4
2022-11-10T05:49:36.547Z,8.4
2022-11-10T05:50:42.769Z,8.5
2022-11-10T05:51:48.996Z,8.6
2022-11-10T05:52:55.226Z,8.6
2022-11-10T05:54:01.455Z,8.6
2022-11-10T05:55:07.685Z,8.7
2022-11-10T05:56:13.910Z,8.7
2022-11-10T05:57:20.140Z,8.7
2022-11-10T05:58:26.363Z,8.8
2022-11-10T05:59:32.586Z,8.8
2022-11-10T06:00:38.809Z,8.8
2022-11-10T06:01:45.037Z,8.8
2022-11-10T06:02:51.258Z,8.7
2022-11-10T06:03:57.487Z,8.7
2022-11-10T06:05:03.726Z,8.6
2022-11-10T06:06:09.939Z,8.5
2022-11-10T06:07:16.188Z,8.6
2022-11-10T06:08:22.504Z,8.5
2022-11-10T06:09:28.784Z,8.6
2022-11-10T06:10:35.119Z,8.6
2022-11-10T06:11:41.410Z,8.6
2022-11-10T06:12:46.699Z,8.6
2022-11-10T06:13:52.918Z,8.6
2022-11-10T06:14:59.142Z,8.7
2022-11-10T06:16:05.372Z,8.7
2022-11-10T06:17:11.625Z,8.7
2022-11-10T06:18:17.854Z,8.8
2022-11-10T06:19:24.069Z,8.8
2022-11-10T06:20:30.286Z,8.8
2022-11-10T06:21:36.525Z,8.8
2022-11-10T06:22:42.742Z,8.8
2022-11-10T06:23:48.975Z,8.8
2022-11-10T06:24:55.259Z,8.8
2022-11-10T06:26:01.437Z,8.8
2022-11-10T06:27:07.657Z,8.8
2022-11-10T06:28:13.882Z,8.8
2022-11-10T06:29:20.106Z,8.8
2022-11-10T06:30:26.337Z,8.9
2022-11-10T06:31:32.579Z,8.9
2022-11-10T06:32:38.786Z,8.9
2022-11-10T06:33:45.007Z,8.9
2022-11-10T06:34:51.216Z,8.9
2022-11-10T06:35:57.439Z,8.8
2022-11-10T06:37:03.664Z,8.8
2022-11-10T06:38:09.983Z,8.7
2022-11-10T06:39:16.189Z,8.7
2022-11-10T06:40:22.424Z,8.7
2022-11-10T06:41:27.712Z,8.7
2022-11-10T06:42:33.944Z,8.6
2022-11-10T06:43:40.165Z,8.6
2022-11-10T06:44:46.376Z,8.6
2022-11-10T06:45:52.603Z,8.5
2022-11-10T06:46:58.836Z,8.5
2022-11-10T06:48:05.074Z,8.5
2022-11-10T06:49:11.339Z,8.5
2022-11-10T06:50:17.580Z,8.5
2022-11-10T06:51:23.730Z,8.5
2022-11-10T06:52:29.950Z,8.5
2022-11-10T06:53:36.180Z,8.5
2022-11-10T06:54:42.495Z,8.5
2022-11-10T06:55:48.676Z,8.6
2022-11-10T06:56:54.907Z,8.7
2022-11-10T06:58:01.163Z,8.8
2022-11-10T06:59:07.370Z,8.9
2022-11-10T07:00:13.650Z,9.1
2022-11-10T07:01:19.728Z,9.3
2022-11-10T07:02:25.946Z,9.7
2022-11-10T07:03:32.240Z,10.1
2022-11-10T07:04:38.395Z,10.4
2022-11-10T07:05:44.565Z,10.5
2022-11-10T07:06:50.777Z,10.8
2022-11-10T07:07:56.972Z,10.8
2022-11-10T07:09:03.247Z,11
2022-11-10T07:10:08.517Z,11.1
2022-11-10T07:11:13.688Z,11.2
2022-11-10T07:12:19.905Z,11.4
2022-11-10T07:13:25.089Z,11.4
2022-11-10T07:14:30.290Z,11.6
2022-11-10T07:15:35.492Z,11.6
2022-11-10T07:16:40.739Z,11.7
2022-11-10T07:17:45.875Z,11.9
2022-11-10T07:18:51.055Z,12.2
2022-11-10T07:19:56.241Z,12.4
2022-11-10T07:21:01.419Z,12.4
2022-11-10T07:22:07.569Z,12.5
2022-11-10T07:23:13.766Z,12.7
2022-11-10T07:24:19.871Z,12.9
2022-11-10T07:25:26.032Z,13.2
2022-11-10T07:26:32.271Z,13.3
2022-11-10T07:27:38.326Z,13.2
2022-11-10T07:28:44.433Z,13.3
2022-11-10T07:29:50.568Z,13.2
2022-11-10T07:30:56.717Z,13.5
2022-11-10T07:32:02.820Z,13.4
2022-11-10T07:33:09.033Z,13.4
2022-11-10T07:34:15.081Z,13.4
2022-11-10T07:35:20.247Z,13.2
2022-11-10T07:36:26.399Z,12.9
2022-11-10T07:37:32.515Z,12.2
2022-11-10T07:38:38.691Z,12
2022-11-10T07:39:44.816Z,11.8
2022-11-10T07:40:50.964Z,11.7
2022-11-10T07:41:57.115Z,11.5
2022-11-10T07:43:03.257Z,11.3
2022-11-10T07:44:09.411Z,11
2022-11-10T07:45:15.603Z,10.7
2022-11-10T07:46:21.730Z,10.6
2022-11-10T07:47:27.883Z,10.4
2022-11-10T07:48:34.040Z,10.3
2022-11-10T07:49:39.243Z,10.3
2022-11-10T07:50:45.452Z,10.4
2022-11-10T07:51:51.565Z,10.6
2022-11-10T07:52:57.749Z,10.7
2022-11-10T07:54:03.962Z,10.7
2022-11-10T07:55:10.101Z,10.8
2022-11-10T07:56:16.275Z,10.9
2022-11-10T07:57:22.455Z,11.1
2022-11-10T07:58:28.622Z,11.2
2022-11-10T07:59:34.806Z,11.3
2022-11-10T08:00:41.157Z,11.4
2022-11-10T08:01:47.261Z,11.6
2022-11-10T08:02:53.422Z,11.7
2022-11-10T08:03:58.658Z,11.5
2022-11-10T08:05:04.831Z,11.6
2022-11-10T08:06:11.016Z,11.8
2022-11-10T08:07:17.071Z,11.9
2022-11-10T08:08:23.248Z,12.1
2022-11-10T08:09:29.479Z,12.2
2022-11-10T08:10:35.636Z,12.3
2022-11-10T08:11:41.893Z,12.3
2022-11-10T08:12:47.939Z,12.4
2022-11-10T08:13:54.158Z,12.4
2022-11-10T08:15:00.279Z,12.5
2022-11-10T08:16:06.452Z,12.6
2022-11-10T08:17:12.727Z,12.5
2022-11-10T08:18:17.827Z,12.6
2022-11-10T08:19:24.025Z,12.6
2022-11-10T08:20:30.159Z,12.5
2022-11-10T08:21:36.319Z,12.5
2022-11-10T08:22:42.546Z,12.4
2022-11-10T08:23:48.681Z,12.3
2022-11-10T08:24:55.015Z,12.2
2022-11-10T08:26:01.125Z,12.1
2022-11-10T08:27:07.149Z,12.1
2022-11-10T08:28:13.316Z,12.1
2022-11-10T08:29:19.489Z,12
2022-11-10T08:30:25.654Z,12
2022-11-10T08:31:31.825Z,12
2022-11-10T08:32:37.136Z,12
2022-11-10T08:33:43.315Z,12
2022-11-10T08:34:49.448Z,12
2022-11-10T08:35:55.580Z,12
2022-11-10T08:37:01.828Z,12.1
2022-11-10T08:38:07.852Z,12.2
2022-11-10T08:39:14.018Z,12.4
2022-11-10T08:40:20.262Z,12.5
2022-11-10T08:41:26.410Z,12.7
2022-11-10T08:42:32.588Z,12.9
2022-11-10T08:43:38.793Z,12.8
2022-11-10T08:44:44.920Z,12.8
2022-11-10T08:45:51.048Z,12.7
2022-11-10T08:46:56.289Z,12.6
2022-11-10T08:48:02.451Z,12.4
2022-11-10T08:49:08.525Z,12.2
2022-11-10T08:50:14.748Z,12.2
2022-11-10T08:51:20.900Z,12.3
2022-11-10T08:52:27.037Z,12.5
2022-11-10T08:53:33.248Z,12.7
2022-11-10T08:54:39.359Z,13.2
2022-11-10T08:55:45.516Z,13.6
2022-11-10T08:56:51.676Z,14.1
2022-11-10T08:57:57.840Z,14.7
2022-11-10T08:59:04.068Z,15.2
2022-11-10T09:00:10.151Z,15.1
2022-11-10T09:01:15.320Z,15.1
2022-11-10T09:02:21.451Z,15
2022-11-10T09:03:27.600Z,15
2022-11-10T09:04:33.771Z,15.4
2022-11-10T09:05:39.957Z,15.9
2022-11-10T09:06:46.027Z,16
2022-11-10T09:07:52.187Z,16.1
2022-11-10T09:08:58.306Z,15.9
2022-11-10T09:10:04.435Z,15.7
2022-11-10T09:11:10.573Z,16.1
2022-11-10T09:12:16.706Z,16.2
2022-11-10T09:13:22.838Z,16.4
2022-11-10T09:14:29.058Z,16.5
2022-11-10T09:15:35.091Z,16.5
2022-11-10T09:16:41.388Z,17
2022-11-10T09:17:47.348Z,16.8
2022-11-10T09:18:53.475Z,16.5
2022-11-10T09:19:59.591Z,16.7
2022-11-10T09:21:05.757Z,16.7
2022-11-10T09:22:11.855Z,16.7
2022-11-10T09:23:17.970Z,16.8
2022-11-10T09:24:24.150Z,16.8
2022-11-10T09:25:30.289Z,17
2022-11-10T09:26:36.343Z,17.3
2022-11-10T09:27:42.509Z,16.9
2022-11-10T09:28:48.599Z,16
2022-11-10T09:29:54.718Z,15.1
2022-11-10T09:31:00.842Z,14.1
2022-11-10T09:32:06.984Z,13.8
2022-11-10T09:33:13.098Z,13.6
2022-11-10T09:34:19.221Z,13.6
2022-11-10T09:35:24.382Z,13.4
2022-11-10T09:36:30.623Z,13.2
2022-11-10T09:37:36.650Z,13.2
2022-11-10T09:38:42.792Z,13.2
2022-11-10T09:39:48.904Z,13.2
2022-11-10T09:40:55.099Z,13.4
2022-11-10T09:42:01.220Z,14.1
2022-11-10T09:43:07.352Z,14.9
2022-11-10T09:44:13.480Z,15.4
2022-11-10T09:45:19.631Z,15.7
2022-11-10T09:46:25.769Z,15.7
2022-11-10T09:47:31.902Z,15.9
2022-11-10T09:48:38.050Z,15.5
2022-11-10T09:49:43.214Z,15.5
2022-11-10T09:50:49.354Z,15.7
2022-11-10T09:51:55.521Z,15.5
2022-11-10T09:53:01.643Z,15.5
2022-11-10T09:54:07.783Z,15.3
2022-11-10T09:55:13.916Z,15.6
2022-11-10T09:56:20.098Z,15.9
2022-11-10T09:57:26.302Z,15.9
2022-11-10T09:58:32.347Z,15.8
2022-11-10T09:59:38.481Z,15.7
2022-11-10T10:00:44.638Z,15.5
2022-11-10T10:01:50.785Z,15.6
2022-11-10T10:02:56.993Z,15.3
2022-11-10T10:04:02.071Z,15.2
2022-11-10T10:05:08.315Z,15.3
2022-11-10T10:06:14.456Z,15.5
2022-11-10T10:07:20.587Z,15.6
2022-11-10T10:08:26.634Z,15.3
2022-11-10T10:09:32.785Z,15.4
2022-11-10T10:10:38.920Z,15.3
2022-11-10T10:11:45.123Z,15.5
2022-11-10T10:12:51.213Z,15.4
2022-11-10T10:13:57.409Z,15.5
2022-11-10T10:15:03.575Z,15.6
2022-11-10T10:16:09.728Z,15.7
2022-11-10T10:17:15.762Z,15.8
2022-11-10T10:18:20.915Z,15.8
2022-11-10T10:19:27.048Z,15.9
2022-11-10T10:20:33.167Z,15.8
2022-11-10T10:21:39.310Z,15.6
2022-11-10T10:22:45.455Z,15.3
2022-11-10T10:23:51.556Z,15.5
2022-11-10T10:24:57.695Z,15.5
2022-11-10T10:26:03.940Z,15.4
2022-11-10T10:27:09.952Z,15.6
2022-11-10T10:28:16.090Z,15.6
2022-11-10T10:29:22.261Z,15.8
2022-11-10T10:30:28.378Z,15.9
2022-11-10T10:31:34.501Z,15.9
2022-11-10T10:32:39.655Z,16.2
2022-11-10T10:33:45.772Z,16.1
2022-11-10T10:34:51.915Z,16.2
2022-11-10T10:35:58.060Z,16.3
2022-11-10T10:37:04.197Z,16.4
2022-11-10T10:38:10.311Z,16.3
2022-11-10T10:39:16.463Z,16.3
2022-11-10T10:40:22.625Z,16.5
2022-11-10T10:41:28.775Z,16.8
2022-11-10T10:42:34.977Z,16.7
2022-11-10T10:43:41.017Z,16.8
2022-11-10T10:44:47.194Z,16.7
2022-11-10T10:45:53.274Z,16.7
2022-11-10T10:46:58.494Z,16.4
2022-11-10T10:48:04.557Z,16.4
2022-11-10T10:49:10.702Z,16.4
2022-11-10T10:50:16.845Z,16.3
2022-11-10T10:51:22.963Z,16.4
2022-11-10T10:52:29.090Z,16.5
2022-11-10T10:53:35.231Z,16.4
2022-11-10T10:54:41.518Z,16.6
2022-11-10T10:55:47.583Z,16.4
2022-11-10T10:56:53.840Z,16.7
2022-11-10T10:57:59.812Z,16.8
2022-11-10T10:59:05.979Z,16.5
2022-11-10T11:00:12.024Z,16.5
2022-11-10T11:01:17.164Z,16.5
2022-11-10T11:02:23.307Z,16.4
2022-11-10T11:03:29.434Z,16.7
2022-11-10T11:04:35.667Z,16.7
2022-11-10T11:05:41.721Z,16.6
2022-11-10T11:06:47.923Z,16.5
2022-11-10T11:07:54.083Z,16.5
2022-11-10T11:09:00.081Z,16.7
2022-11-10T11:10:06.369Z,16.8
2022-11-10T11:11:12.337Z,16.4
2022-11-10T11:12:18.536Z,16.5
2022-11-10T11:13:24.585Z,16.4
2022-11-10T11:14:30.841Z,16.6
2022-11-10T11:15:36.824Z,16.4
2022-11-10T11:16:42.966Z,16.2
2022-11-10T11:17:49.081Z,16.3
2022-11-10T11:18:55.208Z,16
2022-11-10T11:20:01.325Z,16.3
2022-11-10T11:21:07.449Z,16.4
2022-11-10T11:22:13.573Z,16.1
2022-11-10T11:23:19.692Z,16.2
2022-11-10T11:24:25.808Z,15.9
2022-11-10T11:25:30.953Z,16
2022-11-10T11:26:37.078Z,16.1
2022-11-10T11:27:43.232Z,16.2
2022-11-10T11:28:49.316Z,16.4
2022-11-10T11:29:55.462Z,16.4
2022-11-10T11:31:01.623Z,16.3
2022-11-10T11:32:07.758Z,16.2
2022-11-10T11:33:13.817Z,15.9
2022-11-10T11:34:19.946Z,15.9
2022-11-10T11:35:26.073Z,15.9
2022-11-10T11:36:32.182Z,15.9
2022-11-10T11:37:38.345Z,15.7
2022-11-10T11:38:44.432Z,15.5
2022-11-10T11:39:50.552Z,15.4
2022-11-10T11:40:56.669Z,15.5
2022-11-10T11:42:02.813Z,15.5
2022-11-10T11:43:07.948Z,15.7
2022-11-10T11:44:14.077Z,16
2022-11-10T11:45:20.228Z,16
2022-11-10T11:46:26.324Z,15.8
2022-11-10T11:47:32.456Z,15.8
2022-11-10T11:48:38.666Z,16
2022-11-10T11:49:44.705Z,16.6
2022-11-10T11:50:50.835Z,16.5
2022-11-10T11:51:56.965Z,16.6
2022-11-10T11:53:03.237Z,16.9
2022-11-10T11:54:09.263Z,16.7
2022-11-10T11:55:15.326Z,16.2
2022-11-10T11:56:21.457Z,16
2022-11-10T11:57:27.588Z,15.8
2022-11-10T11:58:33.723Z,15.8
2022-11-10T11:59:39.823Z,15.8
2022-11-10T12:00:46.000Z,15.8
2022-11-10T12:01:52.073Z,15.9
2022-11-10T12:02:58.304Z,15.8
2022-11-10T12:04:04.312Z,15.9
2022-11-10T12:05:10.441Z,16.3
2022-11-10T12:06:16.563Z,16.5
2022-11-10T12:07:22.698Z,16.4
2022-11-10T12:08:28.833Z,16.2
2022-11-10T12:09:35.016Z,15.9
2022-11-10T12:10:41.056Z,15.7
2022-11-10T12:11:47.182Z,15.6
2022-11-10T12:12:53.295Z,15.6
2022-11-10T12:13:59.422Z,15.5
2022-11-10T12:15:05.564Z,15.4
2022-11-10T12:16:11.698Z,15.4
2022-11-10T12:17:17.805Z,15.5
2022-11-10T12:18:23.939Z,15.4
2022-11-10T12:19:30.086Z,15.4
2022-11-10T12:20:35.227Z,15.5
2022-11-10T12:21:41.350Z,15.6
2022-11-10T12:22:47.482Z,15.4
2022-11-10T12:23:53.625Z,15.5
2022-11-10T12:24:59.756Z,15.6
2022-11-10T12:26:05.926Z,15.5
2022-11-10T12:27:12.017Z,16
2022-11-10T12:28:18.152Z,16.2
2022-11-10T12:29:24.305Z,16.5
2022-11-10T12:30:30.567Z,16.6
2022-11-10T12:31:36.582Z,16.5
2022-11-10T12:32:42.776Z,16.4
2022-11-10T12:33:48.848Z,16.2
2022-11-10T12:34:53.999Z,16.2
2022-11-10T12:36:00.137Z,16
2022-11-10T12:37:06.256Z,15.9
2022-11-10T12:38:12.417Z,15.6
2022-11-10T12:39:18.557Z,15.8
2022-11-10T12:40:24.660Z,15.8
2022-11-10T12:41:30.793Z,16
2022-11-10T12:42:36.930Z,16.2
2022-11-10T12:43:43.056Z,16.3
2022-11-10T12:44:49.198Z,16.3
2022-11-10T12:45:55.326Z,16.3
2022-11-10T12:47:01.491Z,16.3
2022-11-10T12:48:07.564Z,16.2
2022-11-10T12:49:13.705Z,16.3
2022-11-10T12:50:18.848Z,16.3
2022-11-10T12:51:24.983Z,16.4
2022-11-10T12:52:31.116Z,16.5
2022-11-10T12:53:37.218Z,16.6
2022-11-10T12:54:43.355Z,16.5
2022-11-10T12:55:49.474Z,16.4
2022-11-10T12:56:55.635Z,16.4
2022-11-10T12:58:01.729Z,16.3
2022-11-10T12:59:07.950Z,16.3
2022-11-10T13:00:14.022Z,16.1
2022-11-10T13:01:20.110Z,16
2022-11-10T13:02:26.287Z,15.9
2022-11-10T13:03:32.367Z,15.9
2022-11-10T13:04:38.621Z,15.9
2022-11-10T13:05:44.621Z,15.9
2022-11-10T13:06:50.762Z,15.9
2022-11-10T13:07:56.950Z,15.8
2022-11-10T13:09:02.144Z,15.9
2022-11-10T13:10:08.310Z,15.9
2022-11-10T13:11:14.389Z,15.8
2022-11-10T13:12:20.455Z,15.6
2022-11-10T13:13:26.591Z,15.4
2022-11-10T13:14:32.749Z,15.3
2022-11-10T13:15:38.856Z,15.2
2022-11-10T13:16:44.066Z,15.1
2022-11-10T13:17:50.145Z,15.1
2022-11-10T13:18:56.358Z,15
2022-11-10T13:20:02.427Z,15
2022-11-10T13:21:08.681Z,14.9
2022-11-10T13:22:14.793Z,15
2022-11-10T13:23:20.845Z,15
2022-11-10T13:24:27.007Z,15.1
2022-11-10T13:25:33.137Z,15.1
2022-11-10T13:26:39.333Z,15.1
2022-11-10T13:27:45.424Z,15.1
2022-11-10T13:28:51.649Z,15.2
2022-11-10T13:29:57.824Z,15.2
2022-11-10T13:31:03.028Z,15.2
2022-11-10T13:32:09.093Z,15.3
2022-11-10T13:33:15.141Z,15.3
2022-11-10T13:34:21.403Z,15.2
2022-11-10T13:35:27.463Z,15.2
2022-11-10T13:36:33.590Z,15.2
2022-11-10T13:37:39.795Z,15.1
2022-11-10T13:38:45.888Z,15
2022-11-10T13:39:52.103Z,15
2022-11-10T13:40:58.290Z,15
2022-11-10T13:42:04.443Z,15
2022-11-10T13:43:10.456Z,15.1
2022-11-10T13:44:16.725Z,15.2
2022-11-10T13:45:21.745Z,15.2
2022-11-10T13:46:27.993Z,15.3
2022-11-10T13:47:34.145Z,15.3
2022-11-10T13:48:40.265Z,15.3
2022-11-10T13:49:46.348Z,15.3
2022-11-10T13:50:52.530Z,15.3
2022-11-10T13:51:58.652Z,15.3
2022-11-10T13:53:04.864Z,15.4
2022-11-10T13:54:10.994Z,15.3
2022-11-10T13:55:17.088Z,15.3
2022-11-10T13:56:23.287Z,15.2
2022-11-10T13:57:29.404Z,15.2
2022-11-10T13:58:35.538Z,15.2
2022-11-10T13:59:41.758Z,15.3
2022-11-10T14:00:46.858Z,15.2
2022-11-10T14:01:53.085Z,15.2
2022-11-10T14:02:59.200Z,15.2
2022-11-10T14:04:05.320Z,15.2
2022-11-10T14:05:11.484Z,15.2
2022-11-10T14:06:17.644Z,15.2
2022-11-10T14:07:23.810Z,15.2
2022-11-10T14:08:29.959Z,15.2
2022-11-10T14:09:36.139Z,15.2
2022-11-10T14:10:42.268Z,15.2
2022-11-10T14:11:48.423Z,15.1
2022-11-10T14:12:54.589Z,15.1
2022-11-10T14:14:00.738Z,15.1
2022-11-10T14:15:05.909Z,15.2
2022-11-10T14:16:12.060Z,15.2
2022-11-10T14:17:18.218Z,15.3
2022-11-10T14:18:24.356Z,15.3
2022-11-10T14:19:30.522Z,15.1
2022-11-10T14:20:36.679Z,15.1
2022-11-10T14:21:42.825Z,15.1
2022-11-10T14:22:49.004Z,15.1
2022-11-10T14:23:55.102Z,15
2022-11-10T14:25:01.292Z,15
2022-11-10T14:26:07.496Z,14.9
2022-11-10T14:27:13.543Z,15
2022-11-10T14:28:19.700Z,14.9
2022-11-10T14:29:24.882Z,14.9
2022-11-10T14:30:31.021Z,14.9
2022-11-10T14:31:37.178Z,14.9
2022-11-10T14:32:43.321Z,14.8
2022-11-10T14:33:49.589Z,14.8
2022-11-10T14:34:55.624Z,14.8
2022-11-10T14:36:01.775Z,14.8
2022-11-10T14:37:07.927Z,14.7
2022-11-10T14:38:14.084Z,14.7
2022-11-10T14:39:20.307Z,14.7
2022-11-10T14:40:26.396Z,14.7
2022-11-10T14:41:32.543Z,14.7
2022-11-10T14:42:38.699Z,14.7
2022-11-10T14:43:43.854Z,14.6
2022-11-10T14:44:50.020Z,14.7
2022-11-10T14:45:56.144Z,14.6
2022-11-10T14:47:02.311Z,14.6
2022-11-10T14:48:08.542Z,14.5
2022-11-10T14:49:14.594Z,14.5
2022-11-10T14:50:20.740Z,14.4
2022-11-10T14:51:26.947Z,14.3
2022-11-10T14:52:33.139Z,14.2
2022-11-10T14:53:39.194Z,14.2
2022-11-10T14:54:45.346Z,14.1
2022-11-10T14:55:51.491Z,14.1
2022-11-10T14:56:57.701Z,14.1
2022-11-10T14:58:02.859Z,14
2022-11-10T14:59:09.017Z,14
2022-11-10T15:00:15.154Z,13.9
2022-11-10T15:01:21.336Z,13.8
2022-11-10T15:02:27.464Z,13.7
2022-11-10T15:03:33.619Z,13.6
2022-11-10T15:04:39.891Z,13.5
2022-11-10T15:05:45.940Z,13.5
2022-11-10T15:06:52.196Z,13.4
2022-11-10T15:07:58.370Z,13.4
2022-11-10T15:09:04.443Z,13.4
2022-11-10T15:10:10.698Z,13.3
2022-11-10T15:11:16.750Z,13.2
2022-11-10T15:12:21.937Z,13.1
2022-11-10T15:13:28.109Z,13.1
2022-11-10T15:14:34.348Z,13.2
2022-11-10T15:15:40.433Z,13.1
2022-11-10T15:16:46.591Z,13
2022-11-10T15:17:52.757Z,13
2022-11-10T15:18:59.160Z,12.9
2022-11-10T15:20:05.094Z,12.8
2022-11-10T15:21:11.259Z,12.7
2022-11-10T15:22:17.434Z,12.7
2022-11-10T15:23:23.638Z,12.6
2022-11-10T15:24:29.782Z,12.5
2022-11-10T15:25:36.023Z,12.4
2022-11-10T15:26:41.141Z,12.3
2022-11-10T15:27:47.303Z,12.2
2022-11-10T15:28:53.487Z,12.2
2022-11-10T15:29:59.666Z,12.1
2022-11-10T15:31:05.836Z,12.1
2022-11-10T15:32:12.070Z,12
2022-11-10T15:33:18.197Z,11.9
2022-11-10T15:34:24.373Z,11.8
2022-11-10T15:35:30.552Z,11.6
2022-11-10T15:36:36.723Z,11.5
2022-11-10T15:37:42.950Z,11.5